sensor_id;sensor_type;location;lat;lon;timestamp;pressure;altitude;pressure_sealevel;temperature;humidity
73171;BME280;61381;50.118;19.962;2023-11-18T00:03:36;98426.38;;;4.10;100.00
73171;BME280;61381;50.118;19.962;2023-11-18T00:08:39;98422.03;;;4.21;100.00
73171;BME280;61381;50.118;19.962;2023-11-18T00:13:40;98424.81;;;4.09;100.00
73171;BME280;61381;50.118;19.962;2023-11-18T00:18:41;98428.59;;;3.79;100.00
73171;BME280;61381;50.118;19.962;2023-11-18T00:23:43;98436.53;;;3.79;100.00
73171;BME280;61381;50.118;19.962;2023-11-18T00:28:44;98441.34;;;3.82;100.00
73171;BME280;61381;50.118;19.962;2023-11-18T00:33:45;98443.03;;;3.88;100.00
73171;BME280;61381;50.118;19.962;2023-11-18T00:38:48;98448.16;;;3.78;100.00
73171;BME280;61381;50.118;19.962;2023-11-18T00:43:48;98451.53;;;3.73;100.00
73171;BME280;61381;50.118;19.962;2023-11-18T00:48:49;98445.38;;;3.85;100.00
73171;BME280;61381;50.118;19.962;2023-11-18T00:53:52;98442.31;;;3.93;100.00
73171;BME280;61381;50.118;19.962;2023-11-18T00:58:53;98459.75;;;4.06;100.00
73171;BME280;61381;50.118;19.962;2023-11-18T01:03:54;98448.03;;;3.85;100.00
73171;BME280;61381;50.118;19.962;2023-11-18T01:08:56;98447.69;;;3.64;100.00
73171;BME280;61381;50.118;19.962;2023-11-18T01:13:57;98447.91;;;3.80;100.00
73171;BME280;61381;50.118;19.962;2023-11-18T01:18:58;98444.53;;;3.67;100.00
73171;BME280;61381;50.118;19.962;2023-11-18T01:24:00;98453.16;;;3.74;100.00
73171;BME280;61381;50.118;19.962;2023-11-18T01:29:01;98460.22;;;3.86;100.00
73171;BME280;61381;50.118;19.962;2023-11-18T01:34:02;98451.53;;;3.90;100.00
73171;BME280;61381;50.118;19.962;2023-11-18T01:39:05;98458.63;;;3.85;100.00
73171;BME280;61381;50.118;19.962;2023-11-18T01:44:06;98448.75;;;3.80;100.00
73171;BME280;61381;50.118;19.962;2023-11-18T01:49:07;98453.47;;;3.78;100.00
73171;BME280;61381;50.118;19.962;2023-11-18T01:54:10;98457.94;;;4.11;100.00
73171;BME280;61381;50.118;19.962;2023-11-18T01:59:13;98456.00;;;4.24;100.00
73171;BME280;61381;50.118;19.962;2023-11-18T02:04:14;98453.97;;;4.09;100.00
73171;BME280;61381;50.118;19.962;2023-11-18T02:09:17;98445.59;;;4.00;100.00
73171;BME280;61381;50.118;19.962;2023-11-18T02:14:20;98451.31;;;4.09;100.00
73171;BME280;61381;50.118;19.962;2023-11-18T02:19:21;98449.91;;;4.23;100.00
73171;BME280;61381;50.118;19.962;2023-11-18T02:24:26;98457.69;;;4.30;100.00
73171;BME280;61381;50.118;19.962;2023-11-18T02:29:32;98459.53;;;4.29;100.00
73171;BME280;61381;50.118;19.962;2023-11-18T02:34:34;98458.06;;;4.39;100.00
73171;BME280;61381;50.118;19.962;2023-11-18T02:39:39;98461.13;;;4.47;100.00
73171;BME280;61381;50.118;19.962;2023-11-18T02:44:45;98465.06;;;4.45;100.00
73171;BME280;61381;50.118;19.962;2023-11-18T02:49:53;98462.16;;;4.46;100.00
73171;BME280;61381;50.118;19.962;2023-11-18T02:54:54;98469.31;;;4.46;100.00
73171;BME280;61381;50.118;19.962;2023-11-18T02:59:57;98470.91;;;4.47;100.00
73171;BME280;61381;50.118;19.962;2023-11-18T03:04:58;98473.63;;;4.13;100.00
73171;BME280;61381;50.118;19.962;2023-11-18T03:09:59;98477.38;;;4.34;100.00
73171;BME280;61381;50.118;19.962;2023-11-18T03:15:01;98478.84;;;4.25;100.00
73171;BME280;61381;50.118;19.962;2023-11-18T03:20:02;98483.97;;;4.32;100.00
73171;BME280;61381;50.118;19.962;2023-11-18T03:25:04;98496.16;;;4.50;100.00
73171;BME280;61381;50.118;19.962;2023-11-18T03:30:08;98496.50;;;4.36;100.00
73171;BME280;61381;50.118;19.962;2023-11-18T03:35:09;98500.47;;;4.56;100.00
73171;BME280;61381;50.118;19.962;2023-11-18T03:40:12;98491.47;;;4.57;100.00
73171;BME280;61381;50.118;19.962;2023-11-18T03:45:15;98496.47;;;4.53;100.00
73171;BME280;61381;50.118;19.962;2023-11-18T03:50:16;98497.03;;;4.55;100.00
73171;BME280;61381;50.118;19.962;2023-11-18T03:55:17;98494.16;;;4.40;100.00
73171;BME280;61381;50.118;19.962;2023-11-18T04:00:19;98502.22;;;4.28;100.00
73171;BME280;61381;50.118;19.962;2023-11-18T04:05:21;98503.44;;;4.20;100.00
73171;BME280;61381;50.118;19.962;2023-11-18T04:10:22;98507.34;;;4.18;100.00
73171;BME280;61381;50.118;19.962;2023-11-18T04:15:24;98500.59;;;4.27;100.00
73171;BME280;61381;50.118;19.962;2023-11-18T04:20:25;98509.09;;;4.46;100.00
73171;BME280;61381;50.118;19.962;2023-11-18T04:25:26;98505.41;;;4.30;100.00
73171;BME280;61381;50.118;19.962;2023-11-18T04:30:28;98512.75;;;4.23;100.00
73171;BME280;61381;50.118;19.962;2023-11-18T04:35:29;98520.13;;;4.21;100.00
73171;BME280;61381;50.118;19.962;2023-11-18T04:40:30;98511.38;;;4.20;100.00
73171;BME280;61381;50.118;19.962;2023-11-18T04:45:32;98507.81;;;4.32;100.00
73171;BME280;61381;50.118;19.962;2023-11-18T04:50:33;98515.38;;;4.40;100.00
73171;BME280;61381;50.118;19.962;2023-11-18T04:55:34;98517.56;;;4.43;100.00
73171;BME280;61381;50.118;19.962;2023-11-18T05:00:37;98521.97;;;4.20;100.00
73171;BME280;61381;50.118;19.962;2023-11-18T05:05:39;98527.28;;;4.37;100.00
73171;BME280;61381;50.118;19.962;2023-11-18T05:10:40;98533.06;;;4.34;100.00
73171;BME280;61381;50.118;19.962;2023-11-18T05:15:48;98529.25;;;4.47;100.00
73171;BME280;61381;50.118;19.962;2023-11-18T05:20:49;98529.25;;;4.47;100.00
73171;BME280;61381;50.118;19.962;2023-11-18T05:25:50;98535.66;;;4.29;100.00
73171;BME280;61381;50.118;19.962;2023-11-18T05:30:52;98532.72;;;4.64;100.00
73171;BME280;61381;50.118;19.962;2023-11-18T05:35:53;98547.41;;;4.72;100.00
73171;BME280;61381;50.118;19.962;2023-11-18T05:40:54;98544.25;;;4.75;100.00
73171;BME280;61381;50.118;19.962;2023-11-18T05:45:56;98546.00;;;4.47;100.00
73171;BME280;61381;50.118;19.962;2023-11-18T05:50:58;98546.78;;;4.48;100.00
73171;BME280;61381;50.118;19.962;2023-11-18T05:55:59;98542.00;;;4.28;100.00
73171;BME280;61381;50.118;19.962;2023-11-18T06:01:01;98550.84;;;4.34;100.00
73171;BME280;61381;50.118;19.962;2023-11-18T06:06:03;98556.84;;;4.46;100.00
73171;BME280;61381;50.118;19.962;2023-11-18T06:11:04;98558.84;;;4.39;100.00
73171;BME280;61381;50.118;19.962;2023-11-18T06:16:08;98559.81;;;4.50;100.00
73171;BME280;61381;50.118;19.962;2023-11-18T06:21:13;98572.84;;;4.51;100.00
73171;BME280;61381;50.118;19.962;2023-11-18T06:26:14;98577.72;;;4.25;100.00
73171;BME280;61381;50.118;19.962;2023-11-18T06:31:17;98587.94;;;4.00;100.00
73171;BME280;61381;50.118;19.962;2023-11-18T06:36:18;98601.88;;;3.37;100.00
73171;BME280;61381;50.118;19.962;2023-11-18T06:41:21;98600.16;;;3.19;100.00
73171;BME280;61381;50.118;19.962;2023-11-18T06:46:25;98614.16;;;3.44;100.00
73171;BME280;61381;50.118;19.962;2023-11-18T06:51:27;98619.25;;;3.21;100.00
73171;BME280;61381;50.118;19.962;2023-11-18T06:56:28;98608.81;;;3.27;100.00
73171;BME280;61381;50.118;19.962;2023-11-18T07:01:30;98601.78;;;3.61;100.00
73171;BME280;61381;50.118;19.962;2023-11-18T07:06:31;98612.72;;;3.65;100.00
73171;BME280;61381;50.118;19.962;2023-11-18T07:11:32;98623.63;;;3.80;100.00
73171;BME280;61381;50.118;19.962;2023-11-18T07:16:34;98628.84;;;3.92;100.00
73171;BME280;61381;50.118;19.962;2023-11-18T07:21:35;98625.38;;;4.20;100.00
73171;BME280;61381;50.118;19.962;2023-11-18T07:26:36;98622.56;;;4.27;100.00
73171;BME280;61381;50.118;19.962;2023-11-18T07:31:39;98619.59;;;4.23;100.00
73171;BME280;61381;50.118;19.962;2023-11-18T07:36:40;98622.00;;;4.08;100.00
73171;BME280;61381;50.118;19.962;2023-11-18T07:41:41;98633.66;;;4.24;100.00
73171;BME280;61381;50.118;19.962;2023-11-18T07:46:43;98619.53;;;4.18;100.00
73171;BME280;61381;50.118;19.962;2023-11-18T07:51:44;98622.00;;;4.08;100.00
73171;BME280;61381;50.118;19.962;2023-11-18T07:56:45;98623.19;;;4.00;100.00
73171;BME280;61381;50.118;19.962;2023-11-18T08:01:47;98622.66;;;4.15;100.00
73171;BME280;61381;50.118;19.962;2023-11-18T08:06:49;98630.63;;;3.86;100.00
73171;BME280;61381;50.118;19.962;2023-11-18T08:11:50;98630.50;;;3.81;100.00
73171;BME280;61381;50.118;19.962;2023-11-18T08:16:52;98624.41;;;4.09;100.00
73171;BME280;61381;50.118;19.962;2023-11-18T08:21:53;98627.84;;;4.10;100.00
73171;BME280;61381;50.118;19.962;2023-11-18T08:26:54;98639.00;;;3.95;100.00
73171;BME280;61381;50.118;19.962;2023-11-18T08:31:56;98648.94;;;4.17;100.00
73171;BME280;61381;50.118;19.962;2023-11-18T08:36:57;98654.81;;;4.36;100.00
73171;BME280;61381;50.118;19.962;2023-11-18T08:41:58;98663.53;;;4.19;100.00
73171;BME280;61381;50.118;19.962;2023-11-18T08:47:01;98668.88;;;4.53;100.00
73171;BME280;61381;50.118;19.962;2023-11-18T08:52:02;98668.28;;;4.17;100.00
73171;BME280;61381;50.118;19.962;2023-11-18T08:57:04;98683.03;;;4.13;100.00
73171;BME280;61381;50.118;19.962;2023-11-18T09:02:06;98693.59;;;4.71;100.00
73171;BME280;61381;50.118;19.962;2023-11-18T09:07:07;98711.13;;;4.72;100.00
73171;BME280;61381;50.118;19.962;2023-11-18T09:12:08;98708.97;;;4.86;100.00
73171;BME280;61381;50.118;19.962;2023-11-18T09:17:11;98728.06;;;4.54;100.00
73171;BME280;61381;50.118;19.962;2023-11-18T09:22:11;98728.22;;;4.18;100.00
73171;BME280;61381;50.118;19.962;2023-11-18T09:27:12;98742.06;;;3.56;100.00
73171;BME280;61381;50.118;19.962;2023-11-18T09:32:15;98733.34;;;3.55;100.00
73171;BME280;61381;50.118;19.962;2023-11-18T09:37:16;98739.09;;;3.41;100.00
73171;BME280;61381;50.118;19.962;2023-11-18T09:42:17;98750.81;;;3.56;100.00
73171;BME280;61381;50.118;19.962;2023-11-18T09:47:21;98754.66;;;3.37;100.00
73171;BME280;61381;50.118;19.962;2023-11-18T09:52:26;98777.88;;;3.35;100.00
73171;BME280;61381;50.118;19.962;2023-11-18T09:57:31;98767.88;;;3.37;100.00
73171;BME280;61381;50.118;19.962;2023-11-18T10:02:34;98770.41;;;3.32;100.00
73171;BME280;61381;50.118;19.962;2023-11-18T10:07:36;98767.06;;;3.36;100.00
73171;BME280;61381;50.118;19.962;2023-11-18T10:12:38;98771.19;;;3.44;100.00
73171;BME280;61381;50.118;19.962;2023-11-18T10:17:41;98790.53;;;3.80;100.00
73171;BME280;61381;50.118;19.962;2023-11-18T10:22:42;98794.94;;;3.39;100.00
73171;BME280;61381;50.118;19.962;2023-11-18T10:27:45;98802.41;;;3.30;100.00
73171;BME280;61381;50.118;19.962;2023-11-18T10:32:57;98806.16;;;3.11;100.00
73171;BME280;61381;50.118;19.962;2023-11-18T10:38:01;98817.28;;;3.43;100.00
73171;BME280;61381;50.118;19.962;2023-11-18T10:43:04;98814.81;;;3.18;100.00
73171;BME280;61381;50.118;19.962;2023-11-18T10:48:06;98822.19;;;3.16;100.00
73171;BME280;61381;50.118;19.962;2023-11-18T10:53:08;98821.88;;;2.94;100.00
73171;BME280;61381;50.118;19.962;2023-11-18T10:58:09;98837.63;;;3.43;100.00
73171;BME280;61381;50.118;19.962;2023-11-18T11:03:11;98843.50;;;3.33;100.00
73171;BME280;61381;50.118;19.962;2023-11-18T11:08:14;98847.63;;;3.29;100.00
73171;BME280;61381;50.118;19.962;2023-11-18T11:13:16;98844.00;;;2.99;100.00
73171;BME280;61381;50.118;19.962;2023-11-18T11:18:20;98853.41;;;2.95;100.00
73171;BME280;61381;50.118;19.962;2023-11-18T11:23:27;98863.47;;;3.17;100.00
73171;BME280;61381;50.118;19.962;2023-11-18T11:28:37;98855.38;;;3.00;100.00
73171;BME280;61381;50.118;19.962;2023-11-18T11:33:51;98879.13;;;3.07;100.00
73171;BME280;61381;50.118;19.962;2023-11-18T11:38:55;98875.69;;;3.18;100.00
73171;BME280;61381;50.118;19.962;2023-11-18T11:43:56;98904.63;;;2.71;100.00
73171;BME280;61381;50.118;19.962;2023-11-18T11:49:00;98899.28;;;2.89;100.00
73171;BME280;61381;50.118;19.962;2023-11-18T11:54:06;98898.09;;;3.03;100.00
73171;BME280;61381;50.118;19.962;2023-11-18T11:59:10;98904.97;;;2.93;100.00
73171;BME280;61381;50.118;19.962;2023-11-18T12:04:12;98921.28;;;2.90;100.00
73171;BME280;61381;50.118;19.962;2023-11-18T12:09:15;98917.00;;;2.89;100.00
73171;BME280;61381;50.118;19.962;2023-11-18T12:14:17;98922.97;;;2.84;100.00
73171;BME280;61381;50.118;19.962;2023-11-18T12:19:32;98923.28;;;3.06;100.00
73171;BME280;61381;50.118;19.962;2023-11-18T12:24:33;98936.50;;;2.94;100.00
73171;BME280;61381;50.118;19.962;2023-11-18T12:29:34;98937.81;;;3.15;100.00
73171;BME280;61381;50.118;19.962;2023-11-18T12:34:52;98940.53;;;3.27;100.00
73171;BME280;61381;50.118;19.962;2023-11-18T12:40:21;98949.13;;;2.92;100.00
73171;BME280;61381;50.118;19.962;2023-11-18T12:45:43;98947.19;;;2.99;100.00
73171;BME280;61381;50.118;19.962;2023-11-18T12:50:51;98956.84;;;2.94;100.00
73171;BME280;61381;50.118;19.962;2023-11-18T12:55:52;98962.72;;;2.96;100.00
73171;BME280;61381;50.118;19.962;2023-11-18T13:00:54;98963.69;;;2.83;100.00
73171;BME280;61381;50.118;19.962;2023-11-18T13:05:56;98972.50;;;2.95;100.00
73171;BME280;61381;50.118;19.962;2023-11-18T13:10:58;98979.19;;;2.61;100.00
73171;BME280;61381;50.118;19.962;2023-11-18T13:15:59;98983.84;;;2.65;100.00
73171;BME280;61381;50.118;19.962;2023-11-18T13:21:02;98993.88;;;2.57;100.00
73171;BME280;61381;50.118;19.962;2023-11-18T13:26:03;98994.31;;;2.91;100.00
73171;BME280;61381;50.118;19.962;2023-11-18T13:31:05;99007.56;;;2.72;100.00
73171;BME280;61381;50.118;19.962;2023-11-18T13:36:07;98998.97;;;2.77;100.00
73171;BME280;61381;50.118;19.962;2023-11-18T13:41:09;99013.44;;;2.93;100.00
73171;BME280;61381;50.118;19.962;2023-11-18T13:46:11;99019.84;;;2.85;100.00
73171;BME280;61381;50.118;19.962;2023-11-18T13:51:14;99027.13;;;3.08;100.00
73171;BME280;61381;50.118;19.962;2023-11-18T13:56:15;99030.56;;;2.72;100.00
73171;BME280;61381;50.118;19.962;2023-11-18T14:01:16;99046.59;;;2.95;100.00
73171;BME280;61381;50.118;19.962;2023-11-18T14:06:22;99050.09;;;2.89;100.00
73171;BME280;61381;50.118;19.962;2023-11-18T14:11:23;99059.69;;;3.09;100.00
73171;BME280;61381;50.118;19.962;2023-11-18T14:16:24;99061.78;;;2.63;100.00
73171;BME280;61381;50.118;19.962;2023-11-18T14:21:27;99073.53;;;2.42;100.00
73171;BME280;61381;50.118;19.962;2023-11-18T14:26:28;99076.19;;;2.42;100.00
73171;BME280;61381;50.118;19.962;2023-11-18T14:31:29;99075.66;;;2.58;100.00
73171;BME280;61381;50.118;19.962;2023-11-18T14:36:32;99083.94;;;2.62;100.00
73171;BME280;61381;50.118;19.962;2023-11-18T14:41:33;99084.94;;;2.42;100.00
73171;BME280;61381;50.118;19.962;2023-11-18T14:46:34;99078.66;;;2.62;100.00
73171;BME280;61381;50.118;19.962;2023-11-18T14:51:36;99097.00;;;2.82;100.00
73171;BME280;61381;50.118;19.962;2023-11-18T14:56:37;99083.25;;;2.73;100.00
73171;BME280;61381;50.118;19.962;2023-11-18T15:01:38;99092.59;;;2.76;100.00
73171;BME280;61381;50.118;19.962;2023-11-18T15:06:40;99099.13;;;2.48;100.00
73171;BME280;61381;50.118;19.962;2023-11-18T15:11:41;99101.06;;;2.34;100.00
73171;BME280;61381;50.118;19.962;2023-11-18T15:16:42;99106.13;;;2.36;100.00
73171;BME280;61381;50.118;19.962;2023-11-18T15:21:45;99114.41;;;2.46;100.00
73171;BME280;61381;50.118;19.962;2023-11-18T15:26:46;99125.75;;;2.21;100.00
73171;BME280;61381;50.118;19.962;2023-11-18T15:31:46;99120.22;;;2.29;100.00
73171;BME280;61381;50.118;19.962;2023-11-18T15:36:49;99127.91;;;2.38;100.00
73171;BME280;61381;50.118;19.962;2023-11-18T15:41:50;99121.97;;;2.42;100.00
73171;BME280;61381;50.118;19.962;2023-11-18T15:46:51;99128.25;;;2.41;100.00
73171;BME280;61381;50.118;19.962;2023-11-18T15:51:53;99139.75;;;2.28;100.00
73171;BME280;61381;50.118;19.962;2023-11-18T15:56:54;99143.63;;;2.51;100.00
73171;BME280;61381;50.118;19.962;2023-11-18T16:01:55;99143.97;;;2.61;100.00
73171;BME280;61381;50.118;19.962;2023-11-18T16:06:57;99146.81;;;2.66;100.00
73171;BME280;61381;50.118;19.962;2023-11-18T16:11:58;99163.13;;;2.31;100.00
73171;BME280;61381;50.118;19.962;2023-11-18T16:16:59;99164.38;;;2.54;100.00
73171;BME280;61381;50.118;19.962;2023-11-18T16:22:02;99157.63;;;2.26;100.00
73171;BME280;61381;50.118;19.962;2023-11-18T16:27:03;99148.00;;;2.39;100.00
73171;BME280;61381;50.118;19.962;2023-11-18T16:32:05;99151.25;;;2.41;100.00
73171;BME280;61381;50.118;19.962;2023-11-18T16:37:07;99152.34;;;2.33;100.00
73171;BME280;61381;50.118;19.962;2023-11-18T16:42:08;99159.84;;;2.29;100.00
73171;BME280;61381;50.118;19.962;2023-11-18T16:47:09;99158.75;;;2.44;100.00
73171;BME280;61381;50.118;19.962;2023-11-18T16:52:12;99175.69;;;2.68;100.00
73171;BME280;61381;50.118;19.962;2023-11-18T16:57:13;99165.56;;;2.58;100.00
73171;BME280;61381;50.118;19.962;2023-11-18T17:02:14;99165.63;;;2.77;100.00
73171;BME280;61381;50.118;19.962;2023-11-18T17:07:16;99173.41;;;2.72;100.00
73171;BME280;61381;50.118;19.962;2023-11-18T17:12:17;99168.59;;;2.87;100.00
73171;BME280;61381;50.118;19.962;2023-11-18T17:17:18;99171.66;;;2.59;100.00
73171;BME280;61381;50.118;19.962;2023-11-18T17:22:20;99170.94;;;2.45;100.00
73171;BME280;61381;50.118;19.962;2023-11-18T17:27:21;99177.16;;;2.57;100.00
73171;BME280;61381;50.118;19.962;2023-11-18T17:32:22;99176.41;;;2.50;100.00
73171;BME280;61381;50.118;19.962;2023-11-18T17:37:24;99166.66;;;2.76;100.00
73171;BME280;61381;50.118;19.962;2023-11-18T17:42:25;99177.66;;;2.98;100.00
73171;BME280;61381;50.118;19.962;2023-11-18T17:47:26;99186.25;;;2.93;100.00
73171;BME280;61381;50.118;19.962;2023-11-18T17:52:29;99181.31;;;2.97;100.00
73171;BME280;61381;50.118;19.962;2023-11-18T17:57:29;99174.53;;;3.26;100.00
73171;BME280;61381;50.118;19.962;2023-11-18T18:02:30;99171.34;;;2.99;100.00
73171;BME280;61381;50.118;19.962;2023-11-18T18:07:33;99180.91;;;3.18;100.00
73171;BME280;61381;50.118;19.962;2023-11-18T18:12:34;99173.81;;;2.94;100.00
73171;BME280;61381;50.118;19.962;2023-11-18T18:17:35;99169.56;;;2.93;100.00
73171;BME280;61381;50.118;19.962;2023-11-18T18:22:38;99189.09;;;3.17;100.00
73171;BME280;61381;50.118;19.962;2023-11-18T18:27:39;99191.59;;;3.30;100.00
73171;BME280;61381;50.118;19.962;2023-11-18T18:32:40;99190.34;;;3.14;100.00
73171;BME280;61381;50.118;19.962;2023-11-18T18:37:43;99192.59;;;3.36;100.00
73171;BME280;61381;50.118;19.962;2023-11-18T18:42:44;99183.53;;;3.44;100.00
73171;BME280;61381;50.118;19.962;2023-11-18T18:47:45;99180.22;;;3.48;100.00
73171;BME280;61381;50.118;19.962;2023-11-18T18:52:47;99184.28;;;3.51;100.00
73171;BME280;61381;50.118;19.962;2023-11-18T18:57:48;99186.22;;;3.18;100.00
73171;BME280;61381;50.118;19.962;2023-11-18T19:02:49;99171.88;;;3.26;100.00
73171;BME280;61381;50.118;19.962;2023-11-18T19:07:52;99164.31;;;3.11;100.00
73171;BME280;61381;50.118;19.962;2023-11-18T19:12:53;99159.84;;;2.87;100.00
73171;BME280;61381;50.118;19.962;2023-11-18T19:17:54;99159.66;;;2.88;100.00
73171;BME280;61381;50.118;19.962;2023-11-18T19:22:56;99158.19;;;3.11;100.00
73171;BME280;61381;50.118;19.962;2023-11-18T19:27:57;99151.28;;;3.10;100.00
73171;BME280;61381;50.118;19.962;2023-11-18T19:32:58;99151.09;;;2.86;100.00
73171;BME280;61381;50.118;19.962;2023-11-18T19:38:00;99152.00;;;2.98;100.00
73171;BME280;61381;50.118;19.962;2023-11-18T19:43:01;99136.72;;;3.00;100.00
73171;BME280;61381;50.118;19.962;2023-11-18T19:48:03;99140.66;;;2.73;100.00
73171;BME280;61381;50.118;19.962;2023-11-18T19:53:05;99128.63;;;2.95;100.00
73171;BME280;61381;50.118;19.962;2023-11-18T19:58:06;99141.22;;;3.18;100.00
73171;BME280;61381;50.118;19.962;2023-11-18T20:03:07;99133.72;;;3.15;100.00
73171;BME280;61381;50.118;19.962;2023-11-18T20:08:09;99129.38;;;3.02;100.00
73171;BME280;61381;50.118;19.962;2023-11-18T20:13:11;99129.03;;;3.17;100.00
73171;BME280;61381;50.118;19.962;2023-11-18T20:18:12;99111.41;;;3.04;100.00
73171;BME280;61381;50.118;19.962;2023-11-18T20:23:14;99116.16;;;3.21;100.00
73171;BME280;61381;50.118;19.962;2023-11-18T20:28:15;99107.97;;;3.41;100.00
73171;BME280;61381;50.118;19.962;2023-11-18T20:33:16;99113.34;;;3.53;100.00
73171;BME280;61381;50.118;19.962;2023-11-18T20:38:18;99118.72;;;3.28;100.00
73171;BME280;61381;50.118;19.962;2023-11-18T20:43:19;99116.16;;;3.21;100.00
73171;BME280;61381;50.118;19.962;2023-11-18T20:48:20;99120.50;;;3.34;100.00
73171;BME280;61381;50.118;19.962;2023-11-18T20:53:23;99111.94;;;3.13;100.00
73171;BME280;61381;50.118;19.962;2023-11-18T20:58:24;99121.31;;;3.16;100.00
73171;BME280;61381;50.118;19.962;2023-11-18T21:03:25;99107.63;;;3.00;100.00
73171;BME280;61381;50.118;19.962;2023-11-18T21:08:27;99090.25;;;3.04;100.00
73171;BME280;61381;50.118;19.962;2023-11-18T21:13:28;99090.63;;;3.08;100.00
73171;BME280;61381;50.118;19.962;2023-11-18T21:18:29;99087.16;;;3.26;100.00
73171;BME280;61381;50.118;19.962;2023-11-18T21:23:31;99079.38;;;3.13;100.00
73171;BME280;61381;50.118;19.962;2023-11-18T21:28:32;99060.69;;;3.08;100.00
73171;BME280;61381;50.118;19.962;2023-11-18T21:33:33;99065.63;;;3.22;100.00
73171;BME280;61381;50.118;19.962;2023-11-18T21:38:36;99082.47;;;3.28;100.00
73171;BME280;61381;50.118;19.962;2023-11-18T21:43:37;99086.56;;;3.43;100.00
73171;BME280;61381;50.118;19.962;2023-11-18T21:48:37;99075.03;;;3.00;100.00
73171;BME280;61381;50.118;19.962;2023-11-18T21:53:40;99055.84;;;3.04;100.00
73171;BME280;61381;50.118;19.962;2023-11-18T21:58:41;99056.34;;;3.32;100.00
73171;BME280;61381;50.118;19.962;2023-11-18T22:03:42;99041.28;;;3.32;100.00
73171;BME280;61381;50.118;19.962;2023-11-18T22:08:44;99045.41;;;3.10;100.00
73171;BME280;61381;50.118;19.962;2023-11-18T22:13:45;99063.19;;;3.39;100.00
73171;BME280;61381;50.118;19.962;2023-11-18T22:18:46;99072.63;;;3.35;100.00
73171;BME280;61381;50.118;19.962;2023-11-18T22:23:49;99068.25;;;3.41;100.00
73171;BME280;61381;50.118;19.962;2023-11-18T22:28:49;99065.81;;;3.39;100.00
73171;BME280;61381;50.118;19.962;2023-11-18T22:33:50;99064.88;;;3.52;100.00
73171;BME280;61381;50.118;19.962;2023-11-18T22:38:53;99061.38;;;3.52;100.00
73171;BME280;61381;50.118;19.962;2023-11-18T22:43:54;99053.75;;;3.44;100.00
73171;BME280;61381;50.118;19.962;2023-11-18T22:48:55;99042.81;;;3.40;100.00
73171;BME280;61381;50.118;19.962;2023-11-18T22:53:57;99033.34;;;3.32;100.00
73171;BME280;61381;50.118;19.962;2023-11-18T22:58:58;99014.53;;;3.22;100.00
73171;BME280;61381;50.118;19.962;2023-11-18T23:03:59;99002.44;;;3.45;100.00
73171;BME280;61381;50.118;19.962;2023-11-18T23:09:02;98996.81;;;3.53;100.00
73171;BME280;61381;50.118;19.962;2023-11-18T23:14:03;98996.44;;;3.49;100.00
73171;BME280;61381;50.118;19.962;2023-11-18T23:19:04;99016.56;;;3.38;100.00
73171;BME280;61381;50.118;19.962;2023-11-18T23:24:07;99009.50;;;3.32;100.00
73171;BME280;61381;50.118;19.962;2023-11-18T23:29:08;99006.59;;;3.52;100.00
73171;BME280;61381;50.118;19.962;2023-11-18T23:34:08;99012.69;;;3.04;100.00
73171;BME280;61381;50.118;19.962;2023-11-18T23:39:11;99003.97;;;3.03;100.00
73171;BME280;61381;50.118;19.962;2023-11-18T23:44:12;99005.19;;;3.01;100.00
73171;BME280;61381;50.118;19.962;2023-11-18T23:49:13;99001.00;;;3.12;100.00
73171;BME280;61381;50.118;19.962;2023-11-18T23:54:15;99007.03;;;3.19;100.00
73171;BME280;61381;50.118;19.962;2023-11-18T23:59:16;98991.66;;;3.09;100.00
